Terminal Aerodrome Forecast
Issued by NWS

Home | Current Version | Previous Version | Text Only | Print | Product List | Glossary On
Versions: 1 2 3 4 5 6 7 8 9 10 11 12 13 14 15 16
000
FTUS46 KHNX 281130
TAFVIS
TAF
KVIS 281130Z 2812/2912 09004KT 2SM BR SKC
      TEMPO 2812/2816 3/4SM BR
     FM281600 00000KT 3SM BR SCT200
     FM281900 VRB03KT 5SM HZ SCT200
     FM290300 13004KT 4SM HZ SCT250=

USA.gov is the U.S. government's official web portal to all federal, state and local government web resources and services.